x

Portlock Bank- 76nm Ene Of Kodiak, Ak (46080) Wave Buoy

10:50am - Sun 25th Sep 2016 All times are AKDT. -8 hours from GMT.

  • Sig Wave height 4.6ft
  • Peak Period 8s
  • Average Period 6s
  • Wind
    9mph, 11mph gusts
  • Sea Temp 53°f
  • Air Temp 50°f
  • Sea Pressure 1011.1mb
  • Portlock Bank- 76nm Ene Of Kodiak, Ak
  • Portlock Bank- 76nm Ene Of Kodiak, Ak

More Historic Weather Station data

Upgrade to MSW Pro to gain access to the past 30 days of data for over 8000 Wavebouys and Weather Stations around the globe.

Join Pro

Comparision Forecast

View Surf forecast
   
Sun 09/25 10:50am 4.5ft 8s 6s 9 11 mph 1011.1mb 53f 50f
9:50am 4.5ft 8s 6s 7 9 mph 1010.7mb 53f 50f
8:50am 4.5ft 8s 6s 9 11 mph 1010.4mb 53f 50f
7:50am 4.5ft 9s 6s 11 13 mph 1010.1mb 53f 50f
6:50am 5ft 9s 6s 11 13 mph 1010.1mb 53f 51f
5:50am 4.5ft 8s 6s 9 13 mph 1010mb 53f 51f
4:50am 5ft 8s 6s 9
mph
1009.8mb 53f 51f
3:50am 5ft 9s 6s 9
mph
1009.6mb 52f 51f
2:50am 4.5ft 9s 6s 7 9 mph 1009.4mb 52f 51f
1:50am 5ft 10s 6s 7 9 mph 1009.2mb 52f 51f
12:50am 5ft 9s 6s 7 9 mph 1009.2mb 52f 51f
Sat 09/24 11:50pm 4.5ft 9s 6s 7 9 mph 1009.1mb 52f 51f
10:50pm 5ft 9s 6s 9 11 mph 1008.9mb 52f 51f
9:50pm 5ft 9s 6s 11 13 mph 1008.4mb 52f 52f
8:50pm 5ft 9s 6s 11 16 mph 1008mb 52f 52f
7:50pm 5ft 9s 5s 16 18 mph 1007.7mb 52f 52f
6:50pm 5ft 8s 5s 13 16 mph 1007.7mb 52f 52f
5:50pm 5ft 8s 6s 13 18 mph 1007.6mb 52f 53f
4:50pm 5ft 9s 6s 13 16 mph 1007.5mb 52f 53f
3:50pm 5.5ft 9s 6s 13 16 mph 1007.4mb 52f 53f
2:50pm 5.5ft 10s 6s 13 18 mph 1007.2mb 52f 53f
1:50pm 5.5ft 10s 6s 13 16 mph 1007.2mb 52f 53f
12:50pm 5.5ft 10s 6s 16 18 mph 1006.8mb 52f 52f
11:50am 5ft 10s 6s 13 16 mph 1006.5mb 52f 52f
10:50am 5ft 9s 6s 11 13 mph 1006.1mb 52f 52f
9:50am 5ft 10s 6s 13
mph
1005.6mb 51f 52f
8:50am 5ft 9s 6s 11 13 mph 1005.3mb 51f 52f
7:50am 6ft 9s 7s 11 16 mph 1004.9mb 51f 51f
6:50am  -   -   -  9 11 mph 1004.7mb 51f 52f
5:50am 6.5ft 9s 7s 9 11 mph 1004.3mb 51f 52f
4:50am  -   -   -  9 11 mph 1004.1mb 51f 52f
3:50am 6ft 9s 7s 9 11 mph 1003.9mb 52f 52f
2:50am 7ft 10s 7s 9 11 mph 1003.8mb 52f 52f
1:50am 7ft 10s 7s 9 11 mph 1003.6mb 52f 52f
12:50am 7ft 10s 7s 9 11 mph 1003.4mb 52f 52f
Fri 09/23 11:50pm 7ft 9s 7s 9 11 mph 1002.9mb 52f 52f
10:50pm 7ft 11s 7s 9 11 mph 1002.5mb 52f 52f
9:50pm 6.5ft 11s 7s 9 11 mph 1002.1mb 52f 52f
8:50pm 7ft 10s 7s 9 11 mph 1001.5mb 52f 52f
7:50pm 6ft 10s 7s 9 11 mph 1001mb 52f 52f
6:50pm 7ft 10s 7s 9 11 mph 1000.7mb 52f 53f
5:50pm  -   -   -  9 11 mph 1000.5mb 52f 53f
4:50pm 7.5ft 10s 7s 11 13 mph 1000.3mb 52f 53f
3:50pm 8ft 9s 7s 11 13 mph 1000.2mb 52f 53f
2:50pm 8.5ft 10s 7s 11 13 mph 999.8mb 52f 53f
1:50pm 8ft 10s 7s 13 16 mph 999.6mb 51f 52f
12:50pm 8ft 9s 6s 13 16 mph 999.1mb 51f 52f
11:50am 8.5ft 11s 7s 16 18 mph 998.7mb 51f 52f
10:50am 9ft 10s 7s 13 18 mph 998.2mb 51f 52f
9:50am 9ft 11s 7s 16 18 mph 997.7mb 51f 52f
8:50am 8ft 11s 7s 13 16 mph 997.1mb 51f 52f
7:50am  -   -   -  13 18 mph 996.5mb 52f 52f
6:50am 8.5ft 10s 7s 16 18 mph 996.2mb 52f 52f
5:50am 8ft 10s 7s 16 18 mph 995.7mb 52f 52f
4:50am  -   -   -  16 20 mph 995.5mb 52f 52f
3:50am 8ft 10s 6s 18 20 mph 995.3mb 52f 52f
2:50am 9ft 11s 7s 18 20 mph 995mb 52f 52f
1:50am 8.5ft 11s 6s 18 20 mph 994.7mb 52f 52f
12:50am 10ft 9s 7s 20 25 mph 994.1mb 52f 52f
Thu 09/22 11:50pm 10ft 11s 7s 20 25 mph 993.5mb 51f 52f
10:50pm 10.5ft 10s 7s 22 27 mph 992.8mb 51f 52f
9:50pm 10.5ft 10s 7s 22 27 mph 992.2mb 51f 52f
8:50pm 10.5ft 11s 6s 22 29 mph 991.7mb 51f 52f
7:50pm 10.5ft 11s 6s 25 29 mph 991.1mb 51f 52f
6:50pm  -   -   -  20 25 mph 990.6mb 52f 53f
5:50pm 11.5ft 11s 7s 22 29 mph 990.2mb 52f 53f
4:50pm 12ft 11s 7s 20 29 mph 990mb 52f 53f
3:50pm 11.5ft 10s 7s 20 27 mph 989.7mb 52f 53f
2:50pm  -   -   -  20 25 mph 989.3mb 52f 53f
1:50pm 11ft 10s 7s 20 25 mph 988.7mb 51f 53f
12:50pm 11ft 11s 7s 20 25 mph 987.9mb 51f 53f
11:50am 10ft 11s 7s 18 22 mph 987.1mb 52f 53f
10:50am  -   -   -  20 25 mph 986.3mb 51f 52f
9:50am 11ft 11s 7s 20 25 mph 985.4mb 51f 52f
8:50am 10ft 11s 6s 20 25 mph 984.6mb 51f 52f
7:50am 11.5ft 10s 7s 20 22 mph 983.9mb 51f 51f
6:50am 11ft 11s 7s 20 25 mph 983.5mb 51f 51f
5:50am 11ft 11s  -  20 25 mph 983.4mb 52f 52f
4:50am  -   -   -  22 27 mph 983.4mb 52f 52f
3:50am  -   -   -  22 27 mph 983.3mb 52f 51f
2:50am  -   -   -  22 29 mph 983.3mb 51f 51f
1:50am  -   -   -  20 25 mph 983.4mb 52f 52f
12:50am  -   -   -  20 25 mph 983.4mb 52f 52f
Wed 09/21 11:50pm  -   -   -  18
mph
983.6mb 52f 51f
10:50pm  -   -   -  13 16 mph 984.3mb 52f 51f
9:50pm 11ft 11s 8s 11 16 mph 985.1mb 52f 51f
8:50pm 11.5ft 12s 9s 11 13 mph 986.4mb 52f 51f